Time;durP1;ratioP1;P1;durP2;ratioP2;P2;SDS_P1;SDS_P2;PMS_P1;PMS_P2;Temp;Humidity;BMP_temperature;BMP_pressure;BME280_temperature;BME280_humidity;BME280_pressure;Samples;Min_cycle;Max_cycle;Signal;HPM_P1;HPM_P2
2021/01/14 00:21:11;;;;;;;43.63;26.27;;;;;;;1.18;80.73;97460.92;2140964;83;21143;-78
2021/01/14 00:24:13;;;;;;;40.30;25.57;;;;;;;1.13;80.76;97459.62;2140391;82;21273;-78
2021/01/14 00:57:23;;;;;;;50.83;25.72;;;;;;;1.07;80.47;97440.87;2137995;83;22289;-78
2021/01/14 01:00:27;;;;;;;49.00;28.52;;;;;;;1.08;80.70;97444.27;2140386;83;21762;-78
2021/01/14 01:03:29;;;;;;;46.98;25.90;;;;;;;1.11;80.59;97442.70;2140341;83;21135;-77
2021/01/14 01:06:30;;;;;;;49.00;27.02;;;;;;;1.13;80.46;97439.48;2140582;83;21718;-78
2021/01/14 01:09:32;;;;;;;41.50;25.55;;;;;;;1.11;80.50;97440.11;2140321;83;21761;-78
2021/01/14 01:12:33;;;;;;;44.25;26.37;;;;;;;1.14;80.69;97441.90;2140328;83;21143;-77
2021/01/14 01:15:35;;;;;;;51.10;29.63;;;;;;;1.14;80.50;97443.19;2140317;83;21313;-77
2021/01/14 01:48:45;;;;;;;51.05;26.48;;;;;;;1.09;80.65;97411.88;2140995;83;21675;-77
2021/01/14 01:51:47;;;;;;;54.75;31.15;;;;;;;1.10;80.57;97414.81;2140370;83;21273;-77
2021/01/14 01:54:49;;;;;;;50.33;28.45;;;;;;;1.10;80.66;97417.39;2140480;83;21297;-78
2021/01/14 01:57:51;;;;;;;46.28;27.90;;;;;;;1.09;80.46;97417.04;2140217;83;21278;-78
2021/01/14 02:00:53;;;;;;;52.62;29.72;;;;;;;1.11;80.55;97431.09;2140359;83;21132;-77
2021/01/14 02:03:56;;;;;;;49.95;29.95;;;;;;;1.13;80.62;97436.42;2140583;83;21749;-77
2021/01/14 02:06:58;;;;;;;49.27;29.18;;;;;;;1.21;80.78;97421.97;2140620;83;21261;-77
2021/01/14 02:10:00;;;;;;;52.48;28.55;;;;;;;1.30;80.62;97421.05;2140257;83;21326;-77
2021/01/14 02:13:02;;;;;;;48.02;28.02;;;;;;;1.24;80.40;97422.46;2140274;83;21770;-78
2021/01/14 02:16:03;;;;;;;44.45;27.87;;;;;;;1.28;80.45;97421.21;2140688;83;21309;-78
2021/01/14 02:19:05;;;;;;;47.67;26.73;;;;;;;1.35;80.51;97414.94;2140196;83;21329;-77
2021/01/14 02:52:16;;;;;;;40.05;25.57;;;;;;;1.42;80.30;97414.66;2140796;83;21671;-78
2021/01/14 02:55:17;;;;;;;43.52;26.35;;;;;;;1.46;80.40;97408.22;2140287;83;21785;-77
2021/01/14 02:58:19;;;;;;;45.25;28.05;;;;;;;1.46;80.29;97413.38;2124175;83;21167;-78
2021/01/14 03:01:21;;;;;;;45.85;27.10;;;;;;;1.42;80.25;97412.89;2123791;84;21136;-77
2021/01/14 03:04:22;;;;;;;51.30;30.62;;;;;;;1.41;80.32;97415.14;2123454;84;21163;-77
2021/01/14 03:07:24;;;;;;;47.88;29.87;;;;;;;1.45;80.42;97411.77;2123317;83;21615;-78
2021/01/14 03:10:26;;;;;;;46.68;27.67;;;;;;;1.51;80.25;97400.84;2123454;84;21599;-77
2021/01/14 03:13:27;;;;;;;48.63;27.70;;;;;;;1.50;80.08;97404.39;2123516;84;21706;-78
2021/01/14 03:16:29;;;;;;;46.90;27.77;;;;;;;1.41;79.95;97398.86;2123314;83;21152;-78
2021/01/14 03:19:31;;;;;;;48.10;28.20;;;;;;;1.42;80.31;97397.89;2123267;84;21232;-77
2021/01/14 03:22:36;;;;;;;46.83;26.68;;;;;;;1.46;80.37;97400.48;2123325;84;21171;-78
2021/01/14 03:55:46;;;;;;;35.73;23.12;;;;;;;1.57;80.05;97398.95;2124378;83;21162;-78
2021/01/14 03:58:48;;;;;;;38.58;21.42;;;;;;;1.60;80.03;97396.53;2140293;83;21314;-78
2021/01/14 04:01:50;;;;;;;42.67;24.92;;;;;;;1.61;79.91;97401.53;2148287;82;21332;-78
2021/01/14 04:04:52;;;;;;;35.30;22.75;;;;;;;1.48;79.80;97397.29;2138958;83;21356;-78
2021/01/14 04:07:53;;;;;;;38.65;22.35;;;;;;;1.41;79.74;97403.54;2138791;83;21337;-78
2021/01/14 04:10:54;;;;;;;39.03;24.37;;;;;;;1.41;79.98;97401.44;2138653;83;21230;-78
2021/01/14 04:13:56;;;;;;;40.95;24.98;;;;;;;1.42;80.00;97401.77;2138730;83;21856;-78
2021/01/14 04:17:00;;;;;;;45.92;27.60;;;;;;;1.45;80.13;97405.31;2139316;83;21321;-77
2021/01/14 04:20:01;;;;;;;45.70;27.93;;;;;;;1.48;80.09;97405.52;2140331;83;21625;-77
2021/01/14 04:23:03;;;;;;;42.23;25.97;;;;;;;1.46;79.92;97408.22;2140528;83;21162;-77
2021/01/14 04:56:13;;;;;;;77.45;42.45;;;;;;;1.47;79.56;97412.93;2139513;83;21143;-77
2021/01/14 05:26:28;;;;;;;39.15;25.72;;;;;;;1.48;79.40;97433.41;2123545;84;21265;-77
2021/01/14 05:29:30;;;;;;;37.90;23.77;;;;;;;1.47;79.25;97429.21;2123381;84;21236;-77
2021/01/14 05:32:32;;;;;;;47.83;28.40;;;;;;;1.53;79.35;97437.61;2123537;83;21168;-77
2021/01/14 05:35:33;;;;;;;50.98;28.73;;;;;;;1.58;79.22;97436.68;2123703;83;21694;-77
2021/01/14 05:38:35;;;;;;;43.15;26.15;;;;;;;1.61;78.97;97446.69;2123403;84;21135;-78
2021/01/14 05:41:36;;;;;;;47.95;25.85;;;;;;;1.54;78.80;97446.97;2123387;83;21163;-78
2021/01/14 05:44:38;;;;;;;45.03;25.35;;;;;;;1.42;78.97;97449.00;2123733;83;21309;-78
2021/01/14 05:47:39;;;;;;;40.45;26.10;;;;;;;1.43;79.02;97452.39;2123392;83;21167;-78
2021/01/14 05:50:41;;;;;;;46.98;27.35;;;;;;;1.42;79.11;97452.06;2123486;83;21144;-78
2021/01/14 05:53:42;;;;;;;48.02;26.55;;;;;;;1.45;79.15;97452.23;2123557;84;21163;-78
2021/01/14 05:56:44;;;;;;;66.90;31.70;;;;;;;1.36;79.07;97451.38;2123634;82;21778;-78
2021/01/14 05:59:45;;;;;;;61.63;32.23;;;;;;;1.27;79.08;97455.67;2123744;84;21228;-77
2021/01/14 06:02:49;;;;;;;60.95;31.62;;;;;;;1.19;79.25;97467.25;2123396;83;21136;-77
2021/01/14 06:05:50;;;;;;;88.22;46.73;;;;;;;1.10;79.25;97466.38;2123403;83;21560;-78
2021/01/14 06:08:52;;;;;;;114.97;61.45;;;;;;;0.95;79.33;97469.63;2123498;84;21619;-79
2021/01/14 06:11:54;;;;;;;98.33;54.67;;;;;;;0.90;79.59;97470.55;2123434;83;21622;-78
2021/01/14 06:14:55;;;;;;;93.35;49.70;;;;;;;0.95;79.95;97479.94;2123458;83;21192;-78
2021/01/14 06:17:57;;;;;;;97.65;49.83;;;;;;;1.03;79.94;97483.88;2123428;83;22200;-78
2021/01/14 06:21:01;;;;;;;71.57;40.78;;;;;;;1.03;79.80;97483.40;2123388;83;21168;-77
2021/01/14 06:24:03;;;;;;;60.38;35.43;;;;;;;0.99;79.81;97491.08;2123718;84;21293;-77
2021/01/14 06:27:04;;;;;;;60.48;36.08;;;;;;;1.02;79.89;97499.02;2123442;83;21151;-77
2021/01/14 06:30:06;;;;;;;60.88;37.42;;;;;;;0.99;79.91;97501.87;2123339;83;21159;-77
2021/01/14 06:33:08;;;;;;;56.33;34.15;;;;;;;0.99;79.93;97505.26;2123695;83;21175;-77
2021/01/14 06:36:09;;;;;;;73.22;39.60;;;;;;;1.05;79.87;97510.31;2123689;84;21317;-77
2021/01/14 06:39:11;;;;;;;87.40;45.85;;;;;;;1.07;79.90;97514.83;2123294;83;21152;-77
2021/01/14 06:42:13;;;;;;;96.78;52.27;;;;;;;0.96;79.78;97514.59;2123267;84;21603;-77
2021/01/14 06:45:15;;;;;;;112.40;56.90;;;;;;;0.99;80.13;97523.78;2123383;83;21147;-77
2021/01/14 06:48:16;;;;;;;91.55;49.18;;;;;;;1.03;80.05;97522.55;2123539;83;21159;-77
2021/01/14 06:51:18;;;;;;;74.32;41.15;;;;;;;1.08;80.10;97528.86;2123555;83;21152;-77
2021/01/14 06:54:20;;;;;;;65.25;38.33;;;;;;;1.11;80.03;97536.31;2123700;83;21306;-77
2021/01/14 06:57:21;;;;;;;64.87;39.83;;;;;;;1.10;79.91;97546.30;2126227;83;21198;-79
2021/01/14 07:00:23;;;;;;;74.47;45.03;;;;;;;1.08;80.02;97549.97;2133315;83;21345;-77
2021/01/14 07:03:25;;;;;;;77.12;44.18;;;;;;;1.11;80.20;97551.78;2133397;83;21159;-78
2021/01/14 07:06:27;;;;;;;69.35;40.58;;;;;;;1.13;80.10;97556.79;2133428;83;21301;-77
2021/01/14 07:09:29;;;;;;;91.85;47.17;;;;;;;1.13;79.93;97562.76;2133233;83;21757;-77
2021/01/14 07:12:30;;;;;;;93.47;49.98;;;;;;;1.15;80.10;97562.60;2133160;83;21265;-78
2021/01/14 07:15:32;;;;;;;107.65;54.63;;;;;;;1.17;80.13;97574.05;2133445;83;21722;-79
2021/01/14 07:18:34;;;;;;;92.85;51.73;;;;;;;1.20;80.12;97572.00;2133119;83;21298;-81
2021/01/14 07:21:36;;;;;;;76.20;41.25;;;;;;;1.18;79.96;97578.25;2133078;83;21627;-81
2021/01/14 07:24:39;;;;;;;60.55;33.10;;;;;;;1.16;80.00;97590.48;2133092;83;21572;-80
2021/01/14 07:27:41;;;;;;;57.25;33.45;;;;;;;1.14;80.14;97600.47;2133359;83;21282;-81
2021/01/14 07:30:42;;;;;;;57.58;32.75;;;;;;;1.11;80.09;97607.70;2133088;83;21159;-80
2021/01/14 07:33:44;;;;;;;60.52;34.98;;;;;;;1.08;80.20;97606.69;2133477;83;21325;-80
2021/01/14 07:36:45;;;;;;;65.12;37.08;;;;;;;1.08;80.23;97613.13;2133250;83;21164;-80
2021/01/14 07:39:47;;;;;;;59.38;36.88;;;;;;;1.10;80.26;97607.37;2133113;82;21353;-80
2021/01/14 07:42:49;;;;;;;50.90;33.63;;;;;;;1.14;80.27;97616.42;2133418;83;21330;-84
2021/01/14 07:45:50;;;;;;;60.67;35.55;;;;;;;1.17;80.17;97625.14;2162075;82;21116;-81
2021/01/14 17:54:06;;;;;;;46.95;23.47;;;;;;;-1.00;82.53;98340.14;2259303;79;22826;-80
2021/01/14 17:57:07;;;;;;;36.85;20.70;;;;;;;-1.05;82.27;98348.65;2226204;80;21123;-80
2021/01/14 18:00:09;;;;;;;39.00;22.20;;;;;;;-1.10;82.32;98345.59;2226206;80;21277;-79
2021/01/14 18:03:11;;;;;;;40.83;22.65;;;;;;;-1.15;82.28;98360.08;2226518;80;21673;-80
2021/01/14 18:06:13;;;;;;;44.25;23.00;;;;;;;-1.16;82.09;98357.63;2226647;80;21309;-80
2021/01/14 18:09:15;;;;;;;39.58;21.40;;;;;;;-1.18;81.68;98359.50;2226134;80;21150;-80
2021/01/14 18:12:16;;;;;;;41.68;22.15;;;;;;;-1.24;81.42;98371.52;2226268;80;21321;-80
2021/01/14 18:15:18;;;;;;;48.60;25.25;;;;;;;-1.30;81.52;98375.34;2226426;80;21618;-79
2021/01/14 18:18:21;;;;;;;40.08;23.42;;;;;;;-1.35;81.70;98376.63;2226624;80;21175;-79
2021/01/14 18:21:22;;;;;;;44.70;23.30;;;;;;;-1.36;82.12;98384.80;2226203;80;21175;-79
2021/01/14 18:24:25;;;;;;;53.05;26.80;;;;;;;-1.36;82.14;98382.23;2226504;80;21317;-79
2021/01/14 18:27:26;;;;;;;54.73;30.27;;;;;;;-1.34;82.10;98382.11;2226325;80;21297;-79
2021/01/14 18:30:28;;;;;;;52.75;27.15;;;;;;;-1.29;82.15;98390.28;2226303;80;21306;-79
2021/01/14 18:33:29;;;;;;;49.93;28.52;;;;;;;-1.26;82.15;98381.91;2226162;80;21727;-78
2021/01/14 18:36:32;;;;;;;53.40;29.95;;;;;;;-1.26;82.01;98394.75;2226629;80;21269;-80
2021/01/14 18:39:34;;;;;;;52.30;28.00;;;;;;;-1.24;82.05;98393.34;2226159;80;22305;-79
2021/01/14 18:42:35;;;;;;;47.40;26.23;;;;;;;-1.22;82.05;98394.05;2226526;80;21107;-79
2021/01/14 18:45:37;;;;;;;54.83;30.35;;;;;;;-1.20;81.76;98390.89;2226195;80;21143;-79
2021/01/14 18:48:39;;;;;;;34.60;19.50;;;;;;;-1.20;81.75;98403.27;2226576;80;21686;-80
2021/01/14 18:51:40;;;;;;;33.33;18.70;;;;;;;-1.24;81.47;98392.06;2225619;80;21321;-80
2021/01/14 18:54:42;;;;;;;47.40;25.88;;;;;;;-1.34;81.28;98422.75;2219967;80;21301;-80
2021/01/14 18:57:44;;;;;;;49.15;25.37;;;;;;;-1.40;81.74;98403.10;2220031;80;21677;-80
2021/01/14 19:00:46;;;;;;;47.17;25.62;;;;;;;-1.42;81.82;98400.66;2219935;80;21322;-81
2021/01/14 19:03:48;;;;;;;57.60;30.20;;;;;;;-1.40;81.87;98405.67;2219540;80;21300;-79
2021/01/14 19:06:50;;;;;;;63.52;29.77;;;;;;;-1.38;81.88;98404.62;2219571;80;21274;-79
2021/01/14 19:09:51;;;;;;;58.00;27.27;;;;;;;-1.37;81.67;98402.87;2219245;80;21313;-79
2021/01/14 19:12:53;;;;;;;53.38;28.85;;;;;;;-1.34;81.70;98407.80;2219296;80;21729;-80
2021/01/14 19:15:55;;;;;;;49.63;24.20;;;;;;;-1.32;81.53;98411.89;2219336;80;21135;-79
2021/01/14 19:18:57;;;;;;;49.30;26.62;;;;;;;-1.34;81.41;98406.52;2219181;80;21305;-78
2021/01/14 19:21:58;;;;;;;35.40;20.37;;;;;;;-1.37;81.34;98418.28;2219243;80;21216;-79
2021/01/14 19:25:00;;;;;;;58.65;30.60;;;;;;;-1.40;81.33;98418.05;2219258;80;21183;-79
2021/01/14 19:28:02;;;;;;;50.78;27.48;;;;;;;-1.42;81.49;98422.48;2219308;80;21150;-80
2021/01/14 19:31:03;;;;;;;54.63;26.93;;;;;;;-1.44;81.61;98414.08;2220014;80;21289;-79
2021/01/14 19:34:05;;;;;;;59.38;29.92;;;;;;;-1.45;81.73;98414.55;2219200;80;21713;-78
2021/01/14 19:37:07;;;;;;;69.15;32.38;;;;;;;-1.46;81.76;98414.19;2219296;80;21167;-79
2021/01/14 19:40:08;;;;;;;51.35;26.35;;;;;;;-1.46;81.80;98408.23;2219323;80;21321;-80
2021/01/14 19:43:10;;;;;;;47.40;25.52;;;;;;;-1.46;81.92;98416.77;2219233;80;21305;-79
2021/01/14 19:46:12;;;;;;;63.23;33.00;;;;;;;-1.48;82.09;98426.30;2219210;80;21341;-80
2021/01/14 19:49:16;;;;;;;52.10;27.30;;;;;;;-1.46;82.06;98432.64;2219293;80;21721;-78
2021/01/14 19:52:19;;;;;;;62.73;29.30;;;;;;;-1.46;82.04;98433.45;2218331;80;21306;-79
2021/01/14 19:55:21;;;;;;;43.33;22.15;;;;;;;-1.46;82.20;98434.73;2216208;80;21310;-79
2021/01/14 19:58:22;;;;;;;68.07;32.67;;;;;;;-1.47;82.11;98427.12;2216111;80;21305;-79
2021/01/14 20:01:24;;;;;;;64.42;30.80;;;;;;;-1.45;82.10;98435.55;2215799;80;21175;-80
2021/01/14 20:04:25;;;;;;;70.30;32.20;;;;;;;-1.44;82.08;98442.33;2215747;80;22357;-80
2021/01/14 20:07:27;;;;;;;53.58;25.62;;;;;;;-1.42;81.97;98437.89;2216121;80;21282;-79
2021/01/14 20:10:29;;;;;;;58.73;28.73;;;;;;;-1.41;81.92;98448.52;2215718;80;21282;-80
2021/01/14 20:13:31;;;;;;;66.10;31.82;;;;;;;-1.41;81.83;98447.70;2215830;80;21175;-79
2021/01/14 20:16:33;;;;;;;64.72;32.48;;;;;;;-1.42;81.79;98444.31;2215658;80;21651;-80
2021/01/14 20:19:34;;;;;;;56.63;27.77;;;;;;;-1.42;81.71;98448.16;2216065;80;21301;-79
2021/01/14 20:22:40;;;;;;;39.58;20.43;;;;;;;-1.42;81.69;98447.34;2215733;80;21175;-79
2021/01/14 20:25:39;;;;;;;42.45;23.07;;;;;;;-1.44;81.50;98461.13;2215333;80;21551;-78
2021/01/14 20:28:41;;;;;;;50.43;26.45;;;;;;;-1.51;81.69;98463.77;2215933;80;21289;-78
2021/01/14 20:31:43;;;;;;;36.65;19.60;;;;;;;-1.55;81.70;98470.06;2216030;80;21285;-79
2021/01/14 20:34:45;;;;;;;41.20;20.62;;;;;;;-1.67;81.44;98469.63;2215682;80;21306;-79
2021/01/14 20:37:46;;;;;;;41.18;20.12;;;;;;;-1.78;81.50;98467.01;2215808;80;21610;-78
2021/01/14 20:40:48;;;;;;;48.35;26.30;;;;;;;-1.88;81.74;98466.84;2215805;80;21345;-76
2021/01/14 20:43:50;;;;;;;46.88;22.27;;;;;;;-1.96;81.43;98472.14;2215997;80;21298;-77
2021/01/14 20:46:51;;;;;;;43.50;21.85;;;;;;;-2.15;81.13;98487.99;2216509;80;21149;-79
2021/01/14 20:49:53;;;;;;;46.88;23.55;;;;;;;-2.34;81.69;98480.73;2216030;80;21305;-77
2021/01/14 20:52:55;;;;;;;40.80;22.05;;;;;;;-2.44;81.93;98497.67;2215539;80;21278;-76
2021/01/14 20:55:56;;;;;;;38.28;21.60;;;;;;;-2.55;82.12;98520.65;2216001;80;21333;-77
2021/01/14 20:58:58;;;;;;;42.80;20.68;;;;;;;-2.65;81.81;98503.31;2215781;80;21322;-77
2021/01/14 21:01:59;;;;;;;33.48;19.90;;;;;;;-2.76;81.31;98504.92;2215825;80;21286;-76
2021/01/14 21:05:01;;;;;;;43.15;21.80;;;;;;;-2.81;81.44;98501.86;2216025;80;21289;-76
2021/01/14 21:08:06;;;;;;;41.02;21.27;;;;;;;-2.83;81.52;98509.66;2215633;80;21325;-79
2021/01/14 21:11:07;;;;;;;38.92;20.90;;;;;;;-2.82;81.32;98513.03;2216003;80;21148;-77
2021/01/14 21:14:09;;;;;;;41.20;20.08;;;;;;;-2.88;80.97;98511.22;2215691;80;21261;-77
2021/01/14 21:17:11;;;;;;;35.08;19.40;;;;;;;-2.89;80.53;98515.98;2216070;80;21309;-78
2021/01/14 21:20:13;;;;;;;30.95;16.87;;;;;;;-2.91;80.09;98520.86;2215683;80;21159;-78
2021/01/14 21:23:14;;;;;;;27.25;14.55;;;;;;;-2.95;79.58;98521.95;2215996;80;21336;-77
2021/01/14 21:26:16;;;;;;;32.30;17.75;;;;;;;-3.03;78.75;98515.23;2215761;80;21734;-76
2021/01/14 21:29:17;;;;;;;28.27;16.02;;;;;;;-3.11;78.74;98519.56;2215657;80;21294;-76
2021/01/14 21:32:19;;;;;;;25.75;13.80;;;;;;;-3.16;78.61;98521.61;2215718;80;21706;-77
2021/01/14 21:35:20;;;;;;;26.95;13.88;;;;;;;-3.23;77.37;98518.61;2215690;80;21749;-77
2021/01/14 21:38:22;;;;;;;27.55;15.30;;;;;;;-3.27;77.72;98527.42;2216014;80;21314;-76
2021/01/14 21:41:24;;;;;;;35.73;16.55;;;;;;;-3.29;77.89;98527.14;2215677;80;21167;-78
2021/01/14 21:44:25;;;;;;;32.30;16.70;;;;;;;-3.28;77.75;98528.80;2215659;80;21136;-77
2021/01/14 21:47:27;;;;;;;45.48;19.82;;;;;;;-3.30;77.79;98521.19;2215631;80;21127;-77
2021/01/14 21:50:29;;;;;;;42.55;17.48;;;;;;;-3.29;77.82;98527.14;2215695;80;21583;-78
2021/01/14 21:53:31;;;;;;;35.23;17.73;;;;;;;-3.25;77.80;98531.16;2215415;80;21314;-77
2021/01/14 21:56:32;;;;;;;39.15;18.35;;;;;;;-3.25;77.10;98536.28;2215654;80;21175;-78
2021/01/14 21:59:34;;;;;;;35.55;15.78;;;;;;;-3.26;77.56;98539.30;2215661;80;21313;-78
2021/01/14 22:02:35;;;;;;;21.40;12.75;;;;;;;-3.28;77.43;98533.47;2215608;80;21282;-77
2021/01/14 22:05:37;;;;;;;23.90;14.50;;;;;;;-3.29;76.43;98543.35;2215652;80;21152;-78
2021/01/14 22:08:39;;;;;;;23.77;12.70;;;;;;;-3.33;77.11;98540.60;2215641;80;21270;-78
2021/01/14 22:11:40;;;;;;;25.12;13.32;;;;;;;-3.35;76.65;98548.84;2215606;80;21317;-79
2021/01/14 22:14:42;;;;;;;21.70;12.13;;;;;;;-3.40;76.35;98549.58;2215672;80;21306;-79
2021/01/14 22:17:44;;;;;;;27.73;13.20;;;;;;;-3.39;76.68;98551.68;2215633;80;21310;-79
2021/01/14 22:20:45;;;;;;;20.35;11.35;;;;;;;-3.37;76.88;98549.88;2216093;80;21305;-78
2021/01/14 22:23:47;;;;;;;22.60;11.20;;;;;;;-3.38;76.05;98549.48;2215643;80;21143;-78
2021/01/14 22:26:49;;;;;;;18.87;11.30;;;;;;;-3.42;76.37;98553.16;2215731;80;21721;-78
2021/01/14 22:29:51;;;;;;;24.55;13.80;;;;;;;-3.44;76.33;98548.96;2215645;80;21345;-78
2021/01/14 22:32:52;;;;;;;23.07;12.20;;;;;;;-3.41;76.62;98550.96;2215733;80;21302;-78
2021/01/14 22:35:54;;;;;;;21.62;12.63;;;;;;;-3.40;76.37;98555.98;2215956;80;21309;-78
2021/01/14 22:38:55;;;;;;;19.52;11.45;;;;;;;-3.44;76.35;98559.20;2215717;80;21278;-79
2021/01/14 22:41:57;;;;;;;19.55;8.93;;;;;;;-3.40;76.21;98565.40;2215858;80;21303;-79
2021/01/14 22:44:58;;;;;;;23.32;12.03;;;;;;;-3.42;76.12;98558.28;2215812;80;21301;-78
2021/01/14 22:48:00;;;;;;;24.37;14.47;;;;;;;-3.42;76.53;98553.16;2215939;80;21302;-78
2021/01/14 22:51:02;;;;;;;32.53;16.27;;;;;;;-3.40;76.62;98542.36;2215828;80;21194;-78
2021/01/14 22:54:03;;;;;;;31.73;16.37;;;;;;;-3.38;76.66;98544.36;2215949;80;21306;-78
2021/01/14 22:57:05;;;;;;;31.52;17.52;;;;;;;-3.41;76.39;98544.10;2216019;80;21143;-77
2021/01/14 23:00:07;;;;;;;36.90;18.45;;;;;;;-3.37;76.72;98540.91;2215806;80;21302;-77
2021/01/14 23:03:08;;;;;;;32.48;16.55;;;;;;;-3.39;76.51;98532.02;2215778;80;21152;-77
2021/01/14 23:06:10;;;;;;;34.05;17.82;;;;;;;-3.36;76.59;98533.12;2216030;80;21738;-77
2021/01/14 23:09:11;;;;;;;46.68;21.55;;;;;;;-3.33;76.84;98535.94;2215969;80;21563;-77
2021/01/14 23:12:13;;;;;;;37.05;19.57;;;;;;;-3.27;76.75;98540.69;2216480;80;21559;-77
2021/01/14 23:15:14;;;;;;;42.95;23.38;;;;;;;-3.21;76.94;98537.25;2215906;80;21655;-77
2021/01/14 23:18:16;;;;;;;42.67;19.95;;;;;;;-3.21;77.02;98523.63;2215796;80;21310;-77
2021/01/14 23:21:17;;;;;;;41.77;21.35;;;;;;;-3.14;77.13;98528.73;2216010;80;21306;-77
2021/01/14 23:24:19;;;;;;;40.50;19.98;;;;;;;-3.06;76.96;98546.17;2216004;80;21294;-77
2021/01/14 23:27:20;;;;;;;41.60;21.02;;;;;;;-3.04;76.92;98543.87;2216030;80;21614;-78
2021/01/14 23:30:22;;;;;;;39.63;19.70;;;;;;;-3.01;76.83;98540.31;2216254;80;21313;-78
2021/01/14 23:33:23;;;;;;;39.13;19.10;;;;;;;-3.03;76.98;98547.25;2215721;80;21207;-77
2021/01/14 23:36:25;;;;;;;38.08;19.23;;;;;;;-3.06;77.07;98552.12;2216132;80;21277;-77
2021/01/14 23:39:26;;;;;;;40.17;19.95;;;;;;;-3.14;76.83;98550.50;2215989;80;21228;-77
2021/01/14 23:42:28;;;;;;;26.85;12.90;;;;;;;-3.17;77.13;98545.58;2216011;80;21329;-77
2021/01/14 23:45:30;;;;;;;27.58;14.85;;;;;;;-3.26;76.99;98556.41;2215860;80;21788;-77
2021/01/14 23:48:31;;;;;;;29.27;14.07;;;;;;;-3.32;76.49;98547.82;2216218;80;21136;-77
2021/01/14 23:51:33;;;;;;;24.70;12.10;;;;;;;-3.41;76.90;98544.56;2216134;80;21170;-76
2021/01/14 23:54:34;;;;;;;25.02;14.60;;;;;;;-3.45;76.77;98556.28;2211636;80;21326;-77
2021/01/14 23:57:36;;;;;;;25.15;15.03;;;;;;;-3.50;76.66;98549.33;2208512;81;21177;-77
